Time;durP1;ratioP1;P1;durP2;ratioP2;P2;SDS_P1;SDS_P2;PMS_P1;PMS_P2;Temp;Humidity;BMP_temperature;BMP_pressure;BME280_temperature;BME280_humidity;BME280_pressure;Samples;Min_cycle;Max_cycle;Signal;HPM_P1;HPM_P2
2022/12/01 00:00:45;;;;;;;4.37;3.07;;;;;;;;;;5087499;28;20116;-63
2022/12/01 00:03:12;;;;;;;3.97;2.47;;;;;;;;;;5087639;28;20023;-63
2022/12/01 00:05:39;;;;;;;3.70;2.50;;;;;;;;;;5090176;28;20020;-63
2022/12/01 00:08:09;;;;;;;6.83;2.90;;;;;;;;;;5095512;28;20551;-63
2022/12/01 00:10:35;;;;;;;4.87;2.10;;;;;;;;;;5109069;28;20042;-63
2022/12/01 00:13:03;;;;;;;5.77;3.00;;;;;;;;;;5113020;28;20466;-63
2022/12/01 00:15:36;;;;;;;4.10;2.80;;;;;;;;;;5112984;28;20020;-63
2022/12/01 00:18:05;;;;;;;4.10;2.67;;;;;;;;;;5109746;28;20091;-62
2022/12/01 00:20:34;;;;;;;4.43;2.50;;;;;;;;;;5093106;28;20067;-63
2022/12/01 00:23:01;;;;;;;3.00;2.07;;;;;;;;;;5086804;28;20093;-63
2022/12/01 00:25:27;;;;;;;2.47;1.63;;;;;;;;;;5106172;28;20023;-63
2022/12/01 00:27:54;;;;;;;6.33;2.37;;;;;;;;;;5110147;28;20032;-62
2022/12/01 00:30:22;;;;;;;2.83;2.00;;;;;;;;;;5112838;28;20027;-62
2022/12/01 00:32:49;;;;;;;4.13;2.70;;;;;;;;;;5113024;28;20442;-63
2022/12/01 00:35:16;;;;;;;12.67;3.07;;;;;;;;;;5095732;28;20020;-62
2022/12/01 00:37:44;;;;;;;4.60;3.23;;;;;;;;;;5092312;28;20047;-62
2022/12/01 00:40:11;;;;;;;5.00;3.23;;;;;;;;;;5109031;28;20468;-63
2022/12/01 00:42:38;;;;;;;4.53;2.50;;;;;;;;;;5107168;28;20051;-62
2022/12/01 00:45:05;;;;;;;4.07;2.67;;;;;;;;;;5104914;28;20027;-63
2022/12/01 00:47:32;;;;;;;10.63;3.70;;;;;;;;;;5087013;28;20374;-63
2022/12/01 00:49:59;;;;;;;5.23;2.67;;;;;;;;;;5088745;28;20020;-62
2022/12/01 00:52:25;;;;;;;3.60;2.33;;;;;;;;;;5092336;28;20024;-62
2022/12/01 00:54:52;;;;;;;3.17;2.13;;;;;;;;;;5092186;28;20032;-63
2022/12/01 00:57:21;;;;;;;2.87;1.53;;;;;;;;;;5097560;28;20362;-63
2022/12/01 00:59:49;;;;;;;3.90;2.50;;;;;;;;;;5099675;28;20027;-63
2022/12/01 01:02:16;;;;;;;4.90;2.27;;;;;;;;;;5094064;28;20079;-63
2022/12/01 01:04:42;;;;;;;7.57;2.30;;;;;;;;;;5090989;28;20017;-62
2022/12/01 01:07:09;;;;;;;2.00;1.50;;;;;;;;;;5090735;28;20032;-63
2022/12/01 01:09:39;;;;;;;3.23;2.07;;;;;;;;;;5095119;28;20045;-62
2022/12/01 01:12:06;;;;;;;3.80;2.53;;;;;;;;;;5112481;28;20102;-63
2022/12/01 01:14:32;;;;;;;3.37;2.30;;;;;;;;;;5114795;28;20063;-63
2022/12/01 01:16:59;;;;;;;3.77;2.70;;;;;;;;;;5101009;28;20027;-62
2022/12/01 01:19:26;;;;;;;13.50;3.23;;;;;;;;;;5108261;28;20054;-63
2022/12/01 01:21:58;;;;;;;2.97;2.07;;;;;;;;;;5096859;28;20062;-62
2022/12/01 01:24:28;;;;;;;4.80;2.80;;;;;;;;;;5098413;28;20047;-62
2022/12/01 01:26:55;;;;;;;13.20;3.13;;;;;;;;;;5101177;28;20036;-63
2022/12/01 01:29:21;;;;;;;4.03;2.40;;;;;;;;;;5103782;28;20020;-63
2022/12/01 01:31:48;;;;;;;11.33;2.83;;;;;;;;;;5095072;28;20486;-63
2022/12/01 01:34:15;;;;;;;22.57;3.50;;;;;;;;;;5091474;28;20061;-63
2022/12/01 01:36:42;;;;;;;3.10;2.33;;;;;;;;;;5103805;28;20020;-63
2022/12/01 01:39:08;;;;;;;6.17;3.23;;;;;;;;;;5107913;28;20031;-63
2022/12/01 01:41:35;;;;;;;7.00;2.47;;;;;;;;;;5098147;28;20027;-63
2022/12/01 01:44:02;;;;;;;19.63;2.40;;;;;;;;;;5104874;28;20031;-63
2022/12/01 01:46:33;;;;;;;2.33;1.67;;;;;;;;;;5094254;28;20386;-62
2022/12/01 01:49:00;;;;;;;6.87;2.93;;;;;;;;;;5104714;28;20023;-63
2022/12/01 01:51:30;;;;;;;4.37;2.63;;;;;;;;;;5093689;28;20035;-62
2022/12/01 01:54:00;;;;;;;3.50;1.83;;;;;;;;;;5107737;28;20043;-62
2022/12/01 01:56:28;;;;;;;2.40;1.20;;;;;;;;;;5094110;28;20561;-62
2022/12/01 01:58:55;;;;;;;2.37;1.43;;;;;;;;;;5095337;28;20032;-62
2022/12/01 02:01:21;;;;;;;3.23;1.23;;;;;;;;;;5106578;28;20019;-62
2022/12/01 02:03:50;;;;;;;1.77;1.17;;;;;;;;;;5110675;28;20020;-62
2022/12/01 02:06:17;;;;;;;4.00;1.13;;;;;;;;;;5104417;28;20074;-62
2022/12/01 02:08:44;;;;;;;2.13;0.90;;;;;;;;;;5093016;28;20116;-62
2022/12/01 02:11:19;;;;;;;1.17;0.90;;;;;;;;;;5107606;28;20753;-62
2022/12/01 02:14:06;;;;;;;1.33;0.83;;;;;;;;;;5109906;28;20036;-62
2022/12/01 02:16:39;;;;;;;1.70;1.13;;;;;;;;;;5110040;28;20024;-62
2022/12/01 02:19:11;;;;;;;1.23;0.83;;;;;;;;;;5110911;28;20462;-62
2022/12/01 02:21:53;;;;;;;4.00;1.20;;;;;;;;;;5111442;28;20020;-62
2022/12/01 02:24:20;;;;;;;1.30;0.90;;;;;;;;;;5094519;28;20024;-62
2022/12/01 02:26:53;;;;;;;0.70;0.63;;;;;;;;;;5094650;28;20035;-62
2022/12/01 02:29:37;;;;;;;2.87;1.40;;;;;;;;;;5094849;28;20445;-62
2022/12/01 02:32:28;;;;;;;0.57;0.55;;;;;;;;;;5091808;28;20032;-62
2022/12/01 02:35:01;;;;;;;1.17;0.80;;;;;;;;;;5089178;28;20032;-62
2022/12/01 02:37:34;;;;;;;1.17;0.67;;;;;;;;;;5100879;28;20027;-62
2022/12/01 02:40:07;;;;;;;1.40;1.03;;;;;;;;;;5102433;28;20016;-62
2022/12/01 02:42:49;;;;;;;2.30;0.90;;;;;;;;;;5092152;28;20021;-62
2022/12/01 02:45:23;;;;;;;1.40;0.87;;;;;;;;;;5106351;28;20051;-62
2022/12/01 02:47:53;;;;;;;1.10;0.70;;;;;;;;;;5114743;28;20532;-62
2022/12/01 02:50:22;;;;;;;0.70;0.43;;;;;;;;;;5114940;28;20019;-62
2022/12/01 02:52:49;;;;;;;0.93;0.67;;;;;;;;;;5114250;28;20027;-62
2022/12/01 02:55:15;;;;;;;0.97;0.53;;;;;;;;;;5109750;28;20027;-62
2022/12/01 02:57:42;;;;;;;2.13;1.00;;;;;;;;;;5094675;28;20026;-62
2022/12/01 03:00:12;;;;;;;0.53;0.43;;;;;;;;;;5088630;28;20020;-62
2022/12/01 03:02:54;;;;;;;1.43;0.80;;;;;;;;;;5088660;28;20039;-62
2022/12/01 03:05:45;;;;;;;8.87;0.83;;;;;;;;;;5092565;28;20024;-63
2022/12/01 03:08:24;;;;;;;1.60;0.83;;;;;;;;;;5106303;28;20094;-62
2022/12/01 03:10:55;;;;;;;2.23;0.87;;;;;;;;;;5114176;28;20106;-62
2022/12/01 03:13:40;;;;;;;0.63;0.53;;;;;;;;;;5100236;28;20498;-62
2022/12/01 03:16:23;;;;;;;1.45;1.00;;;;;;;;;;5096509;28;20021;-62
2022/12/01 03:18:50;;;;;;;0.30;0.30;;;;;;;;;;5090861;28;20028;-62
2022/12/01 03:21:17;;;;;;;1.33;0.93;;;;;;;;;;5107938;28;20508;-62
2022/12/01 03:23:47;;;;;;;1.07;0.63;;;;;;;;;;5090270;28;20413;-62
2022/12/01 03:26:16;;;;;;;1.40;0.97;;;;;;;;;;5109867;28;20038;-62
2022/12/01 03:28:46;;;;;;;0.83;0.60;;;;;;;;;;5113914;28;20501;-62
2022/12/01 03:31:15;;;;;;;2.33;1.20;;;;;;;;;;5108801;28;20032;-62
2022/12/01 03:33:47;;;;;;;1.70;0.93;;;;;;;;;;5093231;28;20032;-62
2022/12/01 03:36:35;;;;;;;3.37;1.40;;;;;;;;;;5093350;28;20020;-62
2022/12/01 03:39:04;;;;;;;1.90;0.80;;;;;;;;;;5090533;28;20073;-62
2022/12/01 03:41:39;;;;;;;0.90;0.63;;;;;;;;;;5087796;28;20027;-62
2022/12/01 03:44:12;;;;;;;2.33;1.00;;;;;;;;;;5087474;28;20024;-63
2022/12/01 03:46:49;;;;;;;2.43;0.60;;;;;;;;;;5099534;28;20114;-63
2022/12/01 03:49:17;;;;;;;1.03;0.60;;;;;;;;;;5087489;28;20069;-62
2022/12/01 03:52:09;;;;;;;0.93;0.67;;;;;;;;;;5104896;28;20031;-62
2022/12/01 03:54:49;;;;;;;0.27;0.27;;;;;;;;;;5099603;28;20039;-62
2022/12/01 03:57:24;;;;;;;0.50;0.33;;;;;;;;;;5093016;28;20475;-62
2022/12/01 03:59:52;;;;;;;4.20;1.00;;;;;;;;;;5093106;28;20024;-62
2022/12/01 04:02:19;;;;;;;0.43;0.43;;;;;;;;;;5087834;28;20023;-62
2022/12/01 04:04:46;;;;;;;0.67;0.53;;;;;;;;;;5087557;28;20069;-62
2022/12/01 04:07:13;;;;;;;1.27;0.80;;;;;;;;;;5088414;28;20108;-62
2022/12/01 04:09:41;;;;;;;0.97;0.70;;;;;;;;;;5091906;28;20052;-61
2022/12/01 04:14:54;;;;;;;0.40;0.40;;;;;;;;;;5092508;28;20035;-62
2022/12/01 04:17:21;;;;;;;0.43;0.40;;;;;;;;;;5092587;28;20074;-61
2022/12/01 04:19:47;;;;;;;0.60;0.50;;;;;;;;;;5092521;28;20051;-62
2022/12/01 04:22:16;;;;;;;0.80;0.47;;;;;;;;;;5099071;28;20051;-62
2022/12/01 04:24:43;;;;;;;1.03;0.73;;;;;;;;;;5107720;28;20095;-62
2022/12/01 04:27:10;;;;;;;1.80;0.93;;;;;;;;;;5107694;28;20024;-62
2022/12/01 04:29:36;;;;;;;1.70;1.10;;;;;;;;;;5107490;28;20100;-62
2022/12/01 04:32:03;;;;;;;1.00;0.60;;;;;;;;;;5106270;28;20027;-63
2022/12/01 04:34:30;;;;;;;1.23;0.83;;;;;;;;;;5095305;28;20032;-62
2022/12/01 04:36:57;;;;;;;1.17;0.80;;;;;;;;;;5092207;28;20023;-62
2022/12/01 04:39:23;;;;;;;1.40;0.70;;;;;;;;;;5093597;28;20035;-62
2022/12/01 04:41:50;;;;;;;1.07;0.77;;;;;;;;;;5093032;28;20021;-62
2022/12/01 04:44:17;;;;;;;2.87;1.80;;;;;;;;;;5103872;28;20112;-62
2022/12/01 04:46:44;;;;;;;1.43;1.00;;;;;;;;;;5108239;28;20020;-62
2022/12/01 04:49:13;;;;;;;0.87;0.70;;;;;;;;;;5106915;28;20024;-62
2022/12/01 04:51:40;;;;;;;1.73;1.10;;;;;;;;;;5107460;28;20099;-62
2022/12/01 04:54:06;;;;;;;0.87;0.60;;;;;;;;;;5102534;28;20093;-62
2022/12/01 04:56:33;;;;;;;2.43;1.03;;;;;;;;;;5095747;28;20089;-62
2022/12/01 04:59:00;;;;;;;0.63;0.50;;;;;;;;;;5107497;28;20466;-62
2022/12/01 05:01:27;;;;;;;6.70;1.13;;;;;;;;;;5103215;28;20028;-62
2022/12/01 05:03:54;;;;;;;2.17;0.87;;;;;;;;;;5112303;28;20059;-61
2022/12/01 05:06:22;;;;;;;0.73;0.53;;;;;;;;;;5111887;28;20386;-61
2022/12/01 05:08:49;;;;;;;0.70;0.60;;;;;;;;;;5108679;28;20028;-61
2022/12/01 05:11:17;;;;;;;1.00;0.80;;;;;;;;;;5106687;28;20027;-61
2022/12/01 05:13:44;;;;;;;2.50;1.40;;;;;;;;;;5102272;28;20434;-62
2022/12/01 05:16:11;;;;;;;2.27;1.23;;;;;;;;;;5086234;28;20486;-61
2022/12/01 05:18:38;;;;;;;1.00;0.90;;;;;;;;;;5089618;28;20031;-62
2022/12/01 05:21:05;;;;;;;2.87;2.07;;;;;;;;;;5091937;28;20040;-61
2022/12/01 05:23:33;;;;;;;1.63;1.33;;;;;;;;;;5091553;28;20427;-61
2022/12/01 05:26:00;;;;;;;2.27;1.70;;;;;;;;;;5106135;28;20097;-61
2022/12/01 05:28:27;;;;;;;1.07;0.87;;;;;;;;;;5092030;28;20016;-61
2022/12/01 05:30:54;;;;;;;0.77;0.67;;;;;;;;;;5088598;28;20019;-61
2022/12/01 05:33:21;;;;;;;1.43;1.07;;;;;;;;;;5086333;28;20115;-61
2022/12/01 05:35:48;;;;;;;2.23;1.47;;;;;;;;;;5086358;28;20372;-61
2022/12/01 05:38:15;;;;;;;1.90;1.10;;;;;;;;;;5097163;28;20024;-62
2022/12/01 05:40:42;;;;;;;2.30;1.27;;;;;;;;;;5089090;28;20020;-61
2022/12/01 05:43:08;;;;;;;2.33;1.57;;;;;;;;;;5092571;28;20021;-61
2022/12/01 05:45:35;;;;;;;1.97;1.20;;;;;;;;;;5095565;28;20035;-61
2022/12/01 05:48:02;;;;;;;2.27;1.50;;;;;;;;;;5096400;28;20588;-61
2022/12/01 05:50:37;;;;;;;2.47;1.23;;;;;;;;;;5095299;28;20493;-61
2022/12/01 05:53:04;;;;;;;1.23;1.10;;;;;;;;;;5092759;28;20051;-61
2022/12/01 05:55:32;;;;;;;1.70;1.30;;;;;;;;;;5092148;28;20020;-61
2022/12/01 05:57:59;;;;;;;3.17;2.10;;;;;;;;;;5090052;28;20024;-61
2022/12/01 06:00:25;;;;;;;2.40;1.90;;;;;;;;;;5092014;28;20020;-61
2022/12/01 06:02:52;;;;;;;2.20;1.30;;;;;;;;;;5093267;28;20024;-61
2022/12/01 06:05:19;;;;;;;4.23;1.80;;;;;;;;;;5095393;28;20026;-61
2022/12/01 06:07:49;;;;;;;3.00;1.73;;;;;;;;;;5094825;28;20489;-61
2022/12/01 06:10:17;;;;;;;1.50;1.07;;;;;;;;;;5098514;28;20470;-62
2022/12/01 06:12:53;;;;;;;1.40;1.03;;;;;;;;;;5105302;28;20463;-62
2022/12/01 06:15:19;;;;;;;1.80;1.47;;;;;;;;;;5110725;28;20030;-62
2022/12/01 06:17:46;;;;;;;3.13;1.53;;;;;;;;;;5106441;28;20028;-62
2022/12/01 06:20:13;;;;;;;2.47;1.53;;;;;;;;;;5089437;28;20085;-62
2022/12/01 06:22:40;;;;;;;2.80;1.30;;;;;;;;;;5089534;28;20085;-62
2022/12/01 06:25:07;;;;;;;1.90;1.17;;;;;;;;;;5091515;28;20498;-61
2022/12/01 06:27:33;;;;;;;13.57;1.67;;;;;;;;;;5108673;28;20111;-61
2022/12/01 06:30:00;;;;;;;4.37;1.77;;;;;;;;;;5115097;28;20080;-62
2022/12/01 06:32:27;;;;;;;1.77;1.27;;;;;;;;;;5114898;28;20038;-61
2022/12/01 06:34:54;;;;;;;1.33;0.90;;;;;;;;;;5115047;28;20035;-62
2022/12/01 06:37:21;;;;;;;1.63;1.23;;;;;;;;;;5112722;28;20019;-63
2022/12/01 06:39:48;;;;;;;2.10;1.13;;;;;;;;;;5108821;28;20401;-63
2022/12/01 06:42:15;;;;;;;4.30;1.60;;;;;;;;;;5109719;28;20425;-62
2022/12/01 06:44:41;;;;;;;2.40;1.40;;;;;;;;;;5095053;28;20380;-62
2022/12/01 06:47:11;;;;;;;2.37;1.27;;;;;;;;;;5090647;28;20027;-62
2022/12/01 06:49:41;;;;;;;4.60;0.97;;;;;;;;;;5094161;28;20493;-62
2022/12/01 06:52:08;;;;;;;1.60;1.13;;;;;;;;;;5094218;28;20364;-61
2022/12/01 06:54:36;;;;;;;2.03;1.40;;;;;;;;;;5109743;28;20466;-61
2022/12/01 06:57:02;;;;;;;1.37;0.97;;;;;;;;;;5114271;28;20145;-62
2022/12/01 06:59:29;;;;;;;2.20;1.10;;;;;;;;;;5112294;28;20034;-62
2022/12/01 07:01:56;;;;;;;1.73;1.10;;;;;;;;;;5105643;28;20390;-62
2022/12/01 07:04:25;;;;;;;4.00;1.70;;;;;;;;;;5098035;28;20032;-62
2022/12/01 07:06:52;;;;;;;1.00;0.70;;;;;;;;;;5109318;28;20102;-62
2022/12/01 07:09:18;;;;;;;2.90;1.97;;;;;;;;;;5110266;28;20409;-61
2022/12/01 07:11:45;;;;;;;2.63;1.80;;;;;;;;;;5113836;28;20023;-61
2022/12/01 07:14:16;;;;;;;1.70;1.23;;;;;;;;;;5108997;28;20549;-63
2022/12/01 07:16:43;;;;;;;2.33;1.73;;;;;;;;;;5094462;28;20020;-61
2022/12/01 07:19:09;;;;;;;2.00;1.43;;;;;;;;;;5093800;28;20032;-61
2022/12/01 07:21:36;;;;;;;1.70;1.27;;;;;;;;;;5091926;28;20050;-61
2022/12/01 07:24:02;;;;;;;3.87;1.23;;;;;;;;;;5088277;28;20048;-61
2022/12/01 07:26:29;;;;;;;1.07;0.80;;;;;;;;;;5088368;28;20024;-61
2022/12/01 07:28:56;;;;;;;2.40;1.60;;;;;;;;;;5090337;28;20027;-61
2022/12/01 07:31:22;;;;;;;3.07;2.13;;;;;;;;;;5109250;28;20020;-61
2022/12/01 07:33:49;;;;;;;2.10;1.63;;;;;;;;;;5113598;28;20057;-61
2022/12/01 07:36:16;;;;;;;3.97;1.37;;;;;;;;;;5113859;28;20466;-61
2022/12/01 07:38:42;;;;;;;3.10;2.03;;;;;;;;;;5113752;28;20024;-61
2022/12/01 07:41:10;;;;;;;1.43;0.90;;;;;;;;;;5113822;28;20023;-61
2022/12/01 07:43:37;;;;;;;3.70;2.00;;;;;;;;;;5103595;28;20035;-61
2022/12/01 07:46:12;;;;;;;1.47;1.20;;;;;;;;;;5087808;28;20402;-61
2022/12/01 07:48:39;;;;;;;2.30;1.67;;;;;;;;;;5087831;28;20024;-61
2022/12/01 07:51:07;;;;;;;2.40;1.67;;;;;;;;;;5087582;28;20091;-61
2022/12/01 07:53:33;;;;;;;2.97;1.50;;;;;;;;;;5088034;28;20028;-61
2022/12/01 07:56:00;;;;;;;4.60;2.07;;;;;;;;;;5093005;28;20024;-61
2022/12/01 07:58:27;;;;;;;2.27;1.17;;;;;;;;;;5104392;28;20030;-61
2022/12/01 08:00:54;;;;;;;3.67;1.93;;;;;;;;;;5113325;28;20030;-61
2022/12/01 08:03:21;;;;;;;4.97;2.00;;;;;;;;;;5113514;28;20051;-61
2022/12/01 08:05:57;;;;;;;2.10;1.23;;;;;;;;;;5112367;28;20386;-61
2022/12/01 08:08:24;;;;;;;12.20;1.67;;;;;;;;;;5106926;28;20027;-62
2022/12/01 08:10:51;;;;;;;2.27;1.60;;;;;;;;;;5107856;28;20034;-61
2022/12/01 08:13:19;;;;;;;1.63;1.30;;;;;;;;;;5087420;28;20024;-61
2022/12/01 08:15:45;;;;;;;1.87;1.37;;;;;;;;;;5087447;28;20034;-60
2022/12/01 08:18:12;;;;;;;1.67;1.30;;;;;;;;;;5092567;28;20065;-61
2022/12/01 08:20:39;;;;;;;6.17;2.60;;;;;;;;;;5092592;28;20068;-61
2022/12/01 08:23:07;;;;;;;9.57;2.10;;;;;;;;;;5092579;28;20072;-61
2022/12/01 08:25:33;;;;;;;1.83;1.50;;;;;;;;;;5092729;28;20032;-61
2022/12/01 08:28:00;;;;;;;1.77;1.53;;;;;;;;;;5092664;28;20028;-61
2022/12/01 08:30:27;;;;;;;2.83;1.97;;;;;;;;;;5086991;28;20054;-61
2022/12/01 08:32:57;;;;;;;2.20;1.50;;;;;;;;;;5087058;28;20418;-61
2022/12/01 08:35:25;;;;;;;3.83;2.13;;;;;;;;;;5087158;28;20039;-61
2022/12/01 08:37:52;;;;;;;3.03;2.00;;;;;;;;;;5086929;28;20020;-61
2022/12/01 08:40:19;;;;;;;1.97;1.67;;;;;;;;;;5093335;28;20470;-61
2022/12/01 08:42:46;;;;;;;1.43;1.03;;;;;;;;;;5092130;28;20020;-61
2022/12/01 08:45:12;;;;;;;2.13;1.60;;;;;;;;;;5091944;28;20099;-61
2022/12/01 08:47:39;;;;;;;3.63;2.50;;;;;;;;;;5092405;28;20047;-61
2022/12/01 08:50:06;;;;;;;4.63;2.17;;;;;;;;;;5092289;28;20028;-61
2022/12/01 08:52:33;;;;;;;2.40;1.70;;;;;;;;;;5091086;28;20082;-61
2022/12/01 08:55:00;;;;;;;2.50;1.90;;;;;;;;;;5103105;28;20101;-60
2022/12/01 08:57:28;;;;;;;2.20;1.53;;;;;;;;;;5107326;28;20103;-60
2022/12/01 08:59:55;;;;;;;3.63;2.33;;;;;;;;;;5106968;28;20019;-61
2022/12/01 09:02:22;;;;;;;3.57;1.70;;;;;;;;;;5111603;28;20481;-60
2022/12/01 09:04:49;;;;;;;1.80;1.40;;;;;;;;;;5112332;28;20054;-61
2022/12/01 09:07:16;;;;;;;2.77;1.80;;;;;;;;;;5094637;28;20051;-60
2022/12/01 09:09:43;;;;;;;5.53;1.83;;;;;;;;;;5092210;28;20024;-60
2022/12/01 09:12:10;;;;;;;2.60;1.70;;;;;;;;;;5091867;28;20020;-60
2022/12/01 09:14:38;;;;;;;1.97;1.53;;;;;;;;;;5086873;28;20364;-60
2022/12/01 09:17:05;;;;;;;2.93;2.10;;;;;;;;;;5087188;28;20478;-61
2022/12/01 09:19:32;;;;;;;4.27;3.17;;;;;;;;;;5089855;28;20020;-61
2022/12/01 09:21:59;;;;;;;2.07;1.50;;;;;;;;;;5090473;28;20028;-61
2022/12/01 09:24:26;;;;;;;2.00;1.53;;;;;;;;;;5095195;28;20475;-61
2022/12/01 09:26:57;;;;;;;1.77;1.20;;;;;;;;;;5096252;28;20025;-61
2022/12/01 09:29:24;;;;;;;2.00;1.57;;;;;;;;;;5095896;28;20030;-60
2022/12/01 09:31:51;;;;;;;2.00;1.40;;;;;;;;;;5095184;28;20016;-61
2022/12/01 09:34:21;;;;;;;2.30;1.70;;;;;;;;;;5095715;28;20039;-60
2022/12/01 09:36:48;;;;;;;4.77;2.47;;;;;;;;;;5091759;28;20043;-61
2022/12/01 09:39:17;;;;;;;4.47;2.20;;;;;;;;;;5110803;28;20027;-61
2022/12/01 09:41:46;;;;;;;2.73;1.87;;;;;;;;;;5110670;28;20019;-60
2022/12/01 09:44:22;;;;;;;4.43;1.73;;;;;;;;;;5110576;28;20098;-61
2022/12/01 09:46:54;;;;;;;3.73;2.13;;;;;;;;;;5114948;28;20019;-60
2022/12/01 09:49:26;;;;;;;3.30;1.60;;;;;;;;;;5115684;28;20380;-61
2022/12/01 09:51:53;;;;;;;2.27;1.70;;;;;;;;;;5108865;28;20114;-60
2022/12/01 09:54:20;;;;;;;1.63;1.33;;;;;;;;;;5095200;28;20089;-60
2022/12/01 09:56:49;;;;;;;1.47;1.20;;;;;;;;;;5095353;28;20477;-61
2022/12/01 09:59:19;;;;;;;1.97;1.60;;;;;;;;;;5089708;28;20024;-61
2022/12/01 10:01:47;;;;;;;1.93;1.47;;;;;;;;;;5089847;28;20419;-60
2022/12/01 10:04:20;;;;;;;1.17;1.00;;;;;;;;;;5089751;28;20071;-61
2022/12/01 10:06:49;;;;;;;1.93;1.17;;;;;;;;;;5089579;28;20470;-60
2022/12/01 10:09:20;;;;;;;1.77;1.50;;;;;;;;;;5094449;28;20386;-60
2022/12/01 10:11:50;;;;;;;1.33;1.03;;;;;;;;;;5094610;28;20028;-61
2022/12/01 10:14:19;;;;;;;1.37;1.03;;;;;;;;;;5095144;28;20492;-60
2022/12/01 10:17:04;;;;;;;1.60;1.30;;;;;;;;;;5096513;28;20043;-61
2022/12/01 10:19:49;;;;;;;3.28;1.63;;;;;;;;;;5114617;28;20032;-61
2022/12/01 10:22:38;;;;;;;1.33;1.17;;;;;;;;;;5109801;28;20085;-60
2022/12/01 10:25:14;;;;;;;1.07;0.93;;;;;;;;;;5059527;28;20047;-60
2022/12/01 10:27:47;;;;;;;2.10;1.57;;;;;;;;;;5109402;28;20030;-60
2022/12/01 10:30:25;;;;;;;1.80;1.40;;;;;;;;;;5110667;28;20537;-60
2022/12/01 10:32:53;;;;;;;0.93;0.80;;;;;;;;;;5095477;28;20028;-60
2022/12/01 10:35:21;;;;;;;4.00;1.83;;;;;;;;;;5094546;28;20028;-60
2022/12/01 10:37:49;;;;;;;0.77;0.60;;;;;;;;;;5108551;28;20492;-61
2022/12/01 10:40:17;;;;;;;2.63;1.83;;;;;;;;;;5114687;28;20092;-61
2022/12/01 10:42:45;;;;;;;2.00;1.57;;;;;;;;;;5112061;28;20549;-61
2022/12/01 10:45:21;;;;;;;1.17;1.03;;;;;;;;;;5104814;28;20095;-60
2022/12/01 10:48:06;;;;;;;2.20;1.63;;;;;;;;;;5088787;28;20028;-61
2022/12/01 10:50:33;;;;;;;2.97;2.38;;;;;;;;;;5088996;28;20122;-60
2022/12/01 10:52:59;;;;;;;2.07;1.53;;;;;;;;;;5091979;28;20549;-60
2022/12/01 10:55:27;;;;;;;1.77;1.30;;;;;;;;;;5094179;28;20016;-60
2022/12/01 10:57:55;;;;;;;2.27;1.60;;;;;;;;;;5094036;28;20105;-61
2022/12/01 11:00:23;;;;;;;1.50;1.30;;;;;;;;;;5107595;28;20364;-60
2022/12/01 11:02:50;;;;;;;1.77;1.37;;;;;;;;;;5114393;28;20020;-61
2022/12/01 11:05:25;;;;;;;3.33;2.17;;;;;;;;;;5110491;28;20504;-60
2022/12/01 11:07:52;;;;;;;2.63;1.88;;;;;;;;;;5109052;28;20027;-61
2022/12/01 11:10:24;;;;;;;2.83;2.13;;;;;;;;;;5109069;28;20019;-60
2022/12/01 11:12:54;;;;;;;1.80;1.40;;;;;;;;;;5108834;28;20015;-60
2022/12/01 11:15:29;;;;;;;3.67;2.60;;;;;;;;;;5094632;28;20020;-60
2022/12/01 11:18:02;;;;;;;4.65;2.38;;;;;;;;;;5093857;28;20351;-60
2022/12/01 11:20:31;;;;;;;2.63;2.10;;;;;;;;;;5093675;28;20035;-61
2022/12/01 11:23:16;;;;;;;3.47;1.97;;;;;;;;;;5093774;28;20028;-60
2022/12/01 11:25:56;;;;;;;1.80;1.38;;;;;;;;;;5093262;28;20560;-60
2022/12/01 11:28:23;;;;;;;1.87;1.40;;;;;;;;;;5098086;28;20027;-61
2022/12/01 11:30:55;;;;;;;1.87;1.67;;;;;;;;;;5108597;28;20036;-60
2022/12/01 11:33:22;;;;;;;2.03;1.40;;;;;;;;;;5108276;28;20046;-60
2022/12/01 11:35:49;;;;;;;3.53;2.03;;;;;;;;;;5108388;28;20346;-60
2022/12/01 11:38:23;;;;;;;4.40;1.97;;;;;;;;;;5112757;28;20116;-60
2022/12/01 11:40:54;;;;;;;7.47;1.77;;;;;;;;;;5113409;28;20490;-60
2022/12/01 11:43:27;;;;;;;4.07;1.97;;;;;;;;;;5096670;28;20020;-61
2022/12/01 11:45:54;;;;;;;2.47;1.43;;;;;;;;;;5093198;28;20448;-61
2022/12/01 11:48:21;;;;;;;1.63;1.33;;;;;;;;;;5092865;28;20507;-60
2022/12/01 11:51:02;;;;;;;1.63;1.27;;;;;;;;;;5087525;28;20051;-61
2022/12/01 11:53:33;;;;;;;1.50;1.23;;;;;;;;;;5087620;28;20111;-61
2022/12/01 11:56:13;;;;;;;0.50;0.47;;;;;;;;;;5089238;28;20024;-60
2022/12/01 11:58:40;;;;;;;1.33;0.90;;;;;;;;;;5108459;28;20120;-60
2022/12/01 12:01:17;;;;;;;1.57;1.13;;;;;;;;;;5113173;28;20477;-60
2022/12/01 12:03:54;;;;;;;1.10;0.97;;;;;;;;;;5113443;28;20038;-60
2022/12/01 12:06:24;;;;;;;1.83;1.37;;;;;;;;;;5113168;28;20034;-60
2022/12/01 12:08:56;;;;;;;2.27;1.63;;;;;;;;;;5113054;28;20024;-60
2022/12/01 12:11:23;;;;;;;1.80;1.60;;;;;;;;;;5098187;28;20403;-60
2022/12/01 12:14:02;;;;;;;0.90;0.67;;;;;;;;;;5087173;28;20042;-60
2022/12/01 12:16:38;;;;;;;4.13;2.03;;;;;;;;;;5087328;28;20016;-60
2022/12/01 12:19:31;;;;;;;4.47;2.07;;;;;;;;;;5087044;28;20032;-61
2022/12/01 12:22:07;;;;;;;2.87;1.83;;;;;;;;;;5086671;28;20032;-60
2022/12/01 12:24:36;;;;;;;1.97;0.97;;;;;;;;;;5092362;28;20028;-60
2022/12/01 12:27:23;;;;;;;1.67;1.00;;;;;;;;;;5092272;28;20048;-61
2022/12/01 12:30:05;;;;;;;1.30;0.83;;;;;;;;;;5075382;28;20032;-60
2022/12/01 12:32:35;;;;;;;1.37;1.10;;;;;;;;;;5092635;28;20408;-60
2022/12/01 12:35:25;;;;;;;1.17;0.90;;;;;;;;;;5095096;28;20035;-61
2022/12/01 12:38:10;;;;;;;1.10;0.80;;;;;;;;;;5107538;28;20038;-60
2022/12/01 12:40:49;;;;;;;4.70;1.58;;;;;;;;;;5107208;28;20023;-60
2022/12/01 12:43:25;;;;;;;4.67;1.10;;;;;;;;;;5108347;28;20107;-60
2022/12/01 12:46:00;;;;;;;1.43;0.97;;;;;;;;;;5112692;28;20062;-60
2022/12/01 12:48:36;;;;;;;2.42;1.83;;;;;;;;;;5108490;28;20097;-60
2022/12/01 12:51:22;;;;;;;2.47;1.67;;;;;;;;;;5092235;28;20028;-60
2022/12/01 12:53:57;;;;;;;0.97;0.87;;;;;;;;;;5094455;28;20024;-60
2022/12/01 12:56:25;;;;;;;1.65;1.33;;;;;;;;;;5093285;28;20035;-60
2022/12/01 12:58:57;;;;;;;3.87;1.40;;;;;;;;;;5090720;28;20031;-61
2022/12/01 13:01:36;;;;;;;1.73;1.20;;;;;;;;;;5090989;28;20020;-60
2022/12/01 13:04:21;;;;;;;3.40;1.37;;;;;;;;;;5104366;28;20061;-61
2022/12/01 13:06:51;;;;;;;1.40;1.08;;;;;;;;;;5114923;28;20049;-60
2022/12/01 13:09:23;;;;;;;8.00;1.67;;;;;;;;;;5116477;28;20027;-60
2022/12/01 13:12:14;;;;;;;1.77;1.20;;;;;;;;;;5116663;28;20019;-60
2022/12/01 13:14:49;;;;;;;7.03;2.00;;;;;;;;;;5116162;28;20185;-60
2022/12/01 13:17:19;;;;;;;1.53;1.07;;;;;;;;;;5114603;28;20024;-60
2022/12/01 13:19:46;;;;;;;1.77;1.37;;;;;;;;;;5107015;28;20042;-61
2022/12/01 13:22:14;;;;;;;4.20;2.03;;;;;;;;;;5090684;28;20024;-60
2022/12/01 13:24:41;;;;;;;10.70;2.30;;;;;;;;;;5091535;28;20033;-60
2022/12/01 13:27:12;;;;;;;2.33;1.90;;;;;;;;;;5090465;28;20057;-61
2022/12/01 13:29:39;;;;;;;2.83;2.20;;;;;;;;;;5095445;28;20025;-60
2022/12/01 13:32:07;;;;;;;2.60;2.10;;;;;;;;;;5112241;28;20069;-60
2022/12/01 13:34:33;;;;;;;2.57;2.10;;;;;;;;;;5116074;28;20387;-60
2022/12/01 13:37:00;;;;;;;1.83;1.60;;;;;;;;;;5106071;28;20486;-61
2022/12/01 13:39:34;;;;;;;1.73;1.27;;;;;;;;;;5095680;28;20031;-60
2022/12/01 13:42:06;;;;;;;3.57;2.37;;;;;;;;;;5090254;28;20032;-61
2022/12/01 13:44:41;;;;;;;2.80;1.70;;;;;;;;;;5090240;28;20040;-61
2022/12/01 13:47:10;;;;;;;4.20;2.67;;;;;;;;;;5090152;28;20370;-60
2022/12/01 13:49:39;;;;;;;2.27;1.70;;;;;;;;;;5090049;28;20027;-61
2022/12/01 13:52:21;;;;;;;1.17;1.07;;;;;;;;;;5109929;28;20023;-61
2022/12/01 13:55:02;;;;;;;2.17;1.60;;;;;;;;;;5115718;28;20108;-60
2022/12/01 13:57:30;;;;;;;2.53;1.80;;;;;;;;;;5115968;28;20015;-60
2022/12/01 14:00:00;;;;;;;1.97;1.37;;;;;;;;;;5115668;28;20359;-60
2022/12/01 14:02:28;;;;;;;2.40;1.60;;;;;;;;;;5113868;28;20390;-61
2022/12/01 14:04:54;;;;;;;1.50;1.27;;;;;;;;;;5104429;28;20024;-60
2022/12/01 14:07:23;;;;;;;1.20;1.10;;;;;;;;;;5089881;28;20480;-60
2022/12/01 14:09:51;;;;;;;1.33;1.17;;;;;;;;;;5089763;28;20042;-61
2022/12/01 14:12:22;;;;;;;1.87;1.40;;;;;;;;;;5090943;28;20047;-60
2022/12/01 14:14:59;;;;;;;1.53;1.30;;;;;;;;;;5094898;28;20020;-61
2022/12/01 14:17:30;;;;;;;2.07;1.43;;;;;;;;;;5113540;28;20035;-60
2022/12/01 14:20:07;;;;;;;3.27;1.60;;;;;;;;;;5115232;28;20020;-61
2022/12/01 14:22:33;;;;;;;3.20;2.10;;;;;;;;;;5115233;28;20023;-60
2022/12/01 14:25:00;;;;;;;4.37;1.33;;;;;;;;;;5112608;28;20084;-60
2022/12/01 14:27:35;;;;;;;1.40;0.97;;;;;;;;;;5109067;28;20019;-61
2022/12/01 14:30:20;;;;;;;1.45;1.15;;;;;;;;;;5090376;28;20055;-62
2022/12/01 14:32:47;;;;;;;10.07;1.63;;;;;;;;;;5089473;28;20028;-61
2022/12/01 14:35:14;;;;;;;1.63;1.43;;;;;;;;;;5092106;28;20020;-60
2022/12/01 14:37:43;;;;;;;2.67;1.60;;;;;;;;;;5094094;28;20158;-61
2022/12/01 14:40:17;;;;;;;5.70;1.90;;;;;;;;;;5094595;28;20096;-61
2022/12/01 14:45:41;;;;;;;5.33;3.67;;;;;;;;;;5113289;28;20443;-60
2022/12/01 14:48:13;;;;;;;13.23;5.50;;;;;;;;;;5106644;28;20062;-60
2022/12/01 14:50:50;;;;;;;7.30;5.77;;;;;;;;;;5107528;28;20035;-60
2022/12/01 14:53:23;;;;;;;10.93;7.00;;;;;;;;;;5109246;28;20031;-60
2022/12/01 14:55:52;;;;;;;7.13;5.80;;;;;;;;;;5109237;28;20043;-60
2022/12/01 14:58:24;;;;;;;9.13;5.90;;;;;;;;;;5113716;28;20027;-60
2022/12/01 15:01:06;;;;;;;4.30;2.77;;;;;;;;;;5114642;28;20051;-60
2022/12/01 15:04:02;;;;;;;5.90;3.10;;;;;;;;;;5096234;28;20028;-61
2022/12/01 15:06:29;;;;;;;4.70;2.10;;;;;;;;;;5080243;28;20044;-60